Time;durP1;ratioP1;P1;durP2;ratioP2;P2;SDS_P1;SDS_P2;PMS_P1;PMS_P2;Temp;Humidity;BMP_temperature;BMP_pressure;BME280_temperature;BME280_humidity;BME280_pressure;Samples;Min_cycle;Max_cycle;Signal;HPM_P1;HPM_P2
2022/05/05 00:00:51;;;;;;;21.67;12.27;;;5.10;1.00;;;;;;5017063;28;20121;-26
2022/05/05 00:03:17;;;;;;;21.33;12.40;;;4.70;1.00;;;;;;5015670;28;20125;-26
2022/05/05 00:05:42;;;;;;;21.10;11.55;;;4.80;1.00;;;;;;5014952;28;20054;-26
2022/05/05 00:08:09;;;;;;;19.80;11.55;;;5.10;1.00;;;;;;5015523;28;20041;-26
2022/05/05 00:16:04;;;;;;;22.02;12.30;;;4.80;1.00;;;;;;5029080;28;20065;-26
2022/05/05 00:18:30;;;;;;;20.58;11.32;;;4.70;1.00;;;;;;5014958;28;20049;-26
2022/05/05 00:20:56;;;;;;;22.35;12.63;;;4.70;1.00;;;;;;5014622;28;20416;-26
2022/05/05 00:23:21;;;;;;;22.23;12.50;;;4.80;1.00;;;;;;5015311;28;20042;-26
2022/05/05 00:25:47;;;;;;;18.17;11.98;;;5.10;1.00;;;;;;5015642;28;20084;-27
2022/05/05 00:28:13;;;;;;;24.05;13.07;;;4.80;1.00;;;;;;5013533;28;20052;-27
2022/05/05 00:30:38;;;;;;;23.00;13.88;;;4.80;1.00;;;;;;5015325;28;20041;-26
2022/05/05 00:33:04;;;;;;;25.52;11.32;;;4.90;1.00;;;;;;5018609;28;20045;-26
2022/05/05 00:35:30;;;;;;;18.85;11.98;;;5.00;1.00;;;;;;5015431;28;20092;-26
2022/05/05 00:37:56;;;;;;;23.00;12.80;;;5.00;1.00;;;;;;5014521;28;20045;-26
2022/05/05 00:40:22;;;;;;;20.92;12.10;;;5.00;1.00;;;;;;5015366;28;20552;-26
2022/05/05 00:42:48;;;;;;;17.50;11.85;;;5.00;1.00;;;;;;5015180;28;20133;-27
2022/05/05 00:45:14;;;;;;;21.88;12.18;;;5.20;1.00;;;;;;5014530;28;20485;-26
2022/05/05 00:47:40;;;;;;;24.90;10.75;;;5.20;1.00;;;;;;5014741;28;20413;-27
2022/05/05 00:50:06;;;;;;;20.13;10.10;;;5.20;1.00;;;;;;4997590;28;20116;-26
2022/05/05 00:52:32;;;;;;;20.20;10.77;;;5.10;1.00;;;;;;5014951;28;20068;-26
2022/05/05 00:55:00;;;;;;;18.30;10.50;;;5.30;1.00;;;;;;5013377;28;20485;-26
2022/05/05 00:57:26;;;;;;;17.83;10.60;;;5.20;1.00;;;;;;5013987;28;20054;-26
2022/05/05 00:59:54;;;;;;;17.63;10.02;;;5.40;1.00;;;;;;5014251;28;20049;-26
2022/05/05 01:02:20;;;;;;;20.73;11.38;;;5.80;1.00;;;;;;5016346;28;20041;-27
2022/05/05 01:04:46;;;;;;;16.33;10.25;;;5.50;1.00;;;;;;5014457;28;20183;-26
2022/05/05 01:07:18;;;;;;;18.58;10.13;;;5.40;1.00;;;;;;5013288;28;20053;-26
2022/05/05 01:09:44;;;;;;;21.00;10.88;;;5.40;1.00;;;;;;5023621;28;20424;-26
2022/05/05 01:12:10;;;;;;;17.05;10.38;;;5.50;1.00;;;;;;5015225;28;20053;-26
2022/05/05 01:14:36;;;;;;;19.70;10.38;;;5.50;11.80;;;;;;5013808;28;20061;-26
2022/05/05 01:17:02;;;;;;;20.13;10.13;;;5.60;14.30;;;;;;5013722;28;20054;-26
2022/05/05 01:19:28;;;;;;;16.98;10.10;;;5.60;22.80;;;;;;5014700;28;20409;-27
2022/05/05 01:21:55;;;;;;;20.15;10.05;;;5.90;16.30;;;;;;5014069;28;20046;-26
2022/05/05 01:28:10;;;;;;;16.00;9.35;;;5.90;14.10;;;;;;5016129;28;20057;-26
2022/05/05 01:29:51;;;;;;;14.55;9.25;;;5.90;21.20;;;;;;5014786;28;20481;-26
2022/05/05 01:32:17;;;;;;;17.60;9.23;;;6.30;16.50;;;;;;5012832;28;20092;-27
2022/05/05 01:34:43;;;;;;;17.40;9.77;;;5.90;12.10;;;;;;5016615;28;20081;-26
2022/05/05 01:37:09;;;;;;;16.13;9.63;;;6.00;16.70;;;;;;5014834;28;20046;-26
2022/05/05 01:39:34;;;;;;;16.33;9.32;;;5.90;9.70;;;;;;5013891;28;20049;-26
2022/05/05 01:42:00;;;;;;;21.00;9.50;;;6.00;1.30;;;;;;5012941;28;20046;-27
2022/05/05 01:44:26;;;;;;;19.13;9.15;;;6.00;1.00;;;;;;5013765;28;20046;-26
2022/05/05 01:46:54;;;;;;;17.15;9.07;;;6.10;1.00;;;;;;5013729;28;20045;-26
2022/05/05 01:49:20;;;;;;;18.42;9.85;;;6.00;1.00;;;;;;5013708;28;20125;-26
2022/05/05 01:51:46;;;;;;;14.45;8.45;;;6.10;1.00;;;;;;5014385;28;20572;-26
2022/05/05 01:54:11;;;;;;;14.82;9.32;;;6.10;1.00;;;;;;5013306;28;20130;-26
2022/05/05 01:56:37;;;;;;;13.75;8.63;;;5.90;1.00;;;;;;5012824;28;20045;-26
2022/05/05 01:59:03;;;;;;;16.63;9.57;;;6.00;1.00;;;;;;5013408;28;20095;-26
2022/05/05 02:01:28;;;;;;;13.30;8.63;;;6.10;1.00;;;;;;5013075;28;20513;-26
2022/05/05 02:03:54;;;;;;;20.38;9.77;;;5.90;1.00;;;;;;5013687;28;20480;-27
2022/05/05 02:06:20;;;;;;;18.65;9.45;;;6.00;1.00;;;;;;5014227;28;20052;-26
2022/05/05 02:08:46;;;;;;;14.40;9.10;;;6.00;1.00;;;;;;5013022;28;20125;-26
2022/05/05 02:11:12;;;;;;;19.92;10.85;;;6.10;1.00;;;;;;5012653;28;20463;-26
2022/05/05 02:13:37;;;;;;;17.35;9.57;;;6.10;1.00;;;;;;5012327;28;20050;-26
2022/05/05 02:16:04;;;;;;;17.60;9.88;;;5.90;1.00;;;;;;5011734;28;20465;-29
2022/05/05 02:18:31;;;;;;;18.40;9.95;;;5.80;1.00;;;;;;5027876;28;20512;-26
2022/05/05 02:20:57;;;;;;;18.63;10.48;;;5.80;1.00;;;;;;5013227;28;20085;-26
2022/05/05 02:23:23;;;;;;;16.27;10.55;;;5.70;1.00;;;;;;5012363;28;20046;-27
2022/05/05 02:25:48;;;;;;;21.08;11.23;;;5.60;1.00;;;;;;5013254;28;20041;-26
2022/05/05 02:28:14;;;;;;;19.95;11.82;;;5.40;1.00;;;;;;5014242;28;20125;-26
2022/05/05 02:30:40;;;;;;;18.60;10.23;;;5.70;1.00;;;;;;5027383;28;20183;-27
2022/05/05 02:33:06;;;;;;;20.55;12.07;;;5.60;1.00;;;;;;5026793;28;20038;-26
2022/05/05 02:35:32;;;;;;;21.27;11.75;;;5.60;1.00;;;;;;5016428;28;20544;-26
2022/05/05 02:40:42;;;;;;;18.73;10.63;;;5.60;1.00;;;;;;5013371;28;20151;-26
2022/05/05 02:43:08;;;;;;;30.85;12.77;;;5.40;1.00;;;;;;5012145;28;20505;-26
2022/05/05 02:45:34;;;;;;;18.08;11.70;;;5.40;1.00;;;;;;5012993;28;20085;-27
2022/05/05 02:48:00;;;;;;;22.88;11.73;;;5.80;1.00;;;;;;5012061;28;20038;-26
2022/05/05 02:50:26;;;;;;;24.02;13.00;;;5.50;1.00;;;;;;5013225;28;20046;-26
2022/05/05 02:52:53;;;;;;;20.48;10.95;;;5.70;1.00;;;;;;5013393;28;20050;-26
2022/05/05 02:55:19;;;;;;;17.15;11.15;;;5.40;1.00;;;;;;5011974;28;20054;-26
2022/05/05 02:57:45;;;;;;;19.77;11.23;;;5.40;9.40;;;;;;5013053;28;20046;-26
2022/05/05 03:00:12;;;;;;;20.27;11.50;;;5.50;18.60;;;;;;5012687;28;20046;-26
2022/05/05 03:02:38;;;;;;;21.83;11.57;;;5.40;26.20;;;;;;5012772;28;20049;-26
2022/05/05 03:05:04;;;;;;;20.58;11.52;;;5.40;42.50;;;;;;5012088;28;20461;-26
2022/05/05 03:07:30;;;;;;;17.77;10.65;;;5.40;69.50;;;;;;5012951;28;20046;-26
2022/05/05 03:09:56;;;;;;;18.48;10.65;;;5.40;87.50;;;;;;5012302;28;20129;-26
2022/05/05 03:12:22;;;;;;;14.80;8.98;;;5.20;90.60;;;;;;5012101;28;20065;-26
2022/05/05 03:14:47;;;;;;;15.98;8.95;;;5.40;95.00;;;;;;5015293;28;20145;-26
2022/05/05 03:17:14;;;;;;;14.00;9.13;;;5.20;94.50;;;;;;5017419;28;20516;-26
2022/05/05 03:19:41;;;;;;;17.05;9.05;;;5.50;96.00;;;;;;5016408;28;20121;-26
2022/05/05 03:22:07;;;;;;;18.35;9.40;;;5.50;96.20;;;;;;5017214;28;20523;-26
2022/05/05 03:24:33;;;;;;;18.25;8.73;;;5.40;97.20;;;;;;5028433;28;20124;-26
2022/05/05 03:27:00;;;;;;;14.48;9.18;;;5.50;97.30;;;;;;5019380;28;20496;-27
2022/05/05 03:29:26;;;;;;;15.32;7.90;;;5.70;99.90;;;;;;5017219;28;20505;-27
2022/05/05 03:31:51;;;;;;;12.80;7.55;;;5.40;97.20;;;;;;5016404;28;20130;-26
2022/05/05 03:34:17;;;;;;;15.57;7.80;;;5.60;93.90;;;;;;5018741;28;20191;-26
2022/05/05 03:36:43;;;;;;;18.90;8.10;;;5.70;88.80;;;;;;5024450;28;20111;-27
2022/05/05 03:39:09;;;;;;;18.17;8.45;;;5.60;79.20;;;;;;5016234;28;20489;-26
2022/05/05 03:41:34;;;;;;;18.33;9.05;;;5.60;74.70;;;;;;5016283;28;20603;-26
2022/05/05 03:44:00;;;;;;;12.20;8.57;;;5.90;71.90;;;;;;5014778;28;20400;-26
2022/05/05 03:46:26;;;;;;;17.25;8.45;;;5.60;75.00;;;;;;5015541;28;20057;-26
2022/05/05 03:48:52;;;;;;;15.25;8.60;;;5.60;75.70;;;;;;5015524;28;20045;-26
2022/05/05 03:51:18;;;;;;;16.40;8.60;;;5.70;78.40;;;;;;5020414;28;20041;-26
2022/05/05 03:53:44;;;;;;;12.00;9.20;;;5.70;84.70;;;;;;5018316;28;20128;-27
2022/05/05 03:56:10;;;;;;;15.88;8.55;;;5.70;79.90;;;;;;5016912;28;20134;-26
2022/05/05 03:58:35;;;;;;;15.52;7.85;;;5.80;75.50;;;;;;5016921;28;20072;-26
2022/05/05 04:01:01;;;;;;;15.90;8.57;;;5.80;57.70;;;;;;5028486;28;20505;-26
2022/05/05 04:03:30;;;;;;;11.73;7.75;;;5.80;45.70;;;;;;5036421;28;20041;-26
2022/05/05 04:06:00;;;;;;;17.17;8.68;;;5.80;35.00;;;;;;5035818;28;20099;-26
2022/05/05 04:08:26;;;;;;;14.43;7.10;;;5.90;26.50;;;;;;5034857;28;20049;-26
2022/05/05 04:10:53;;;;;;;12.45;7.90;;;5.80;15.80;;;;;;5034368;28;20069;-26
2022/05/05 04:13:19;;;;;;;12.73;8.55;;;6.00;9.20;;;;;;5020254;28;20104;-26
2022/05/05 04:15:45;;;;;;;13.88;7.63;;;5.90;4.70;;;;;;5015758;28;20081;-27
2022/05/05 04:18:11;;;;;;;13.48;8.43;;;6.00;1.00;;;;;;5016187;28;20095;-26
2022/05/05 04:20:36;;;;;;;19.60;9.27;;;6.10;1.00;;;;;;5015991;28;20128;-26
2022/05/05 04:23:02;;;;;;;15.73;8.52;;;6.30;1.00;;;;;;5015776;28;20574;-26
2022/05/05 04:25:28;;;;;;;15.10;8.57;;;6.40;1.00;;;;;;5014335;28;20046;-27
2022/05/05 04:27:54;;;;;;;14.80;8.88;;;6.20;1.00;;;;;;5015621;28;20081;-26
2022/05/05 04:30:21;;;;;;;13.52;7.88;;;6.20;1.00;;;;;;5015600;28;20045;-26
2022/05/05 04:32:47;;;;;;;15.07;8.75;;;6.20;1.00;;;;;;5016207;28;20052;-27
2022/05/05 04:35:14;;;;;;;13.45;8.52;;;6.30;1.00;;;;;;5015559;28;20192;-26
2022/05/05 04:37:41;;;;;;;18.58;9.65;;;6.40;1.00;;;;;;5015595;28;20480;-26
2022/05/05 04:40:08;;;;;;;17.10;9.32;;;6.50;1.00;;;;;;5016640;28;20046;-26
2022/05/05 04:42:34;;;;;;;12.75;9.13;;;6.40;1.00;;;;;;5014751;28;20053;-26
2022/05/05 04:45:00;;;;;;;20.25;10.65;;;6.50;1.00;;;;;;5014738;28;20115;-26
2022/05/05 04:47:26;;;;;;;16.90;9.18;;;6.50;1.00;;;;;;5014455;28;20433;-28
2022/05/05 04:49:55;;;;;;;16.95;8.90;;;6.50;1.00;;;;;;5034874;28;20045;-26
2022/05/05 04:52:20;;;;;;;13.70;9.65;;;6.60;1.00;;;;;;5033553;28;20059;-29
2022/05/05 04:54:46;;;;;;;18.48;9.52;;;6.60;1.00;;;;;;5015444;28;20120;-28
2022/05/05 04:57:12;;;;;;;13.93;9.25;;;6.80;1.00;;;;;;5017965;28;20085;-27
2022/05/05 04:59:38;;;;;;;15.43;8.65;;;6.80;1.00;;;;;;4996742;28;20056;-26
2022/05/05 05:02:04;;;;;;;15.23;11.00;;;6.90;1.00;;;;;;5013051;28;20045;-26
2022/05/05 05:04:30;;;;;;;15.23;9.75;;;6.90;1.00;;;;;;5015550;28;20053;-26
2022/05/05 05:06:56;;;;;;;15.52;9.80;;;7.00;1.00;;;;;;5014395;28;20046;-26
2022/05/05 05:09:22;;;;;;;17.63;9.38;;;7.00;1.00;;;;;;5015090;28;20104;-26
2022/05/05 05:11:47;;;;;;;19.05;10.38;;;7.00;1.00;;;;;;4997032;28;20523;-26
2022/05/05 05:14:13;;;;;;;18.75;10.18;;;7.10;1.00;;;;;;5014234;28;20054;-26
2022/05/05 05:16:39;;;;;;;14.52;9.38;;;7.20;1.00;;;;;;5015230;28;20056;-26
2022/05/05 05:19:05;;;;;;;15.45;9.10;;;7.30;1.00;;;;;;5027225;28;20045;-26
2022/05/05 05:21:31;;;;;;;16.35;9.60;;;7.40;1.00;;;;;;5015445;28;20466;-26
2022/05/05 05:23:57;;;;;;;18.80;9.48;;;7.40;1.00;;;;;;5014445;28;20600;-26
2022/05/05 05:26:23;;;;;;;18.38;10.50;;;7.60;1.00;;;;;;5013415;28;20497;-27
2022/05/05 05:28:49;;;;;;;16.58;9.52;;;7.60;1.00;;;;;;5013843;28;20050;-27
2022/05/05 05:31:16;;;;;;;14.93;8.90;;;7.70;1.00;;;;;;5012704;28;20049;-26
2022/05/05 05:33:42;;;;;;;13.43;9.30;;;7.80;1.00;;;;;;5015469;28;20510;-26
2022/05/05 05:36:08;;;;;;;17.77;9.32;;;7.90;1.00;;;;;;5022990;28;20112;-26
2022/05/05 05:38:35;;;;;;;11.90;8.70;;;7.90;1.00;;;;;;5014596;28;20465;-27
2022/05/05 05:41:01;;;;;;;14.43;8.20;;;8.20;1.00;;;;;;5013871;28;20045;-27
2022/05/05 05:43:27;;;;;;;16.73;8.27;;;8.30;1.00;;;;;;5014336;28;20484;-27
2022/05/05 05:45:53;;;;;;;17.08;8.80;;;8.30;1.00;;;;;;5014645;28;20060;-26
2022/05/05 05:48:18;;;;;;;14.75;8.45;;;8.40;1.00;;;;;;5013664;28;20485;-27
2022/05/05 05:50:44;;;;;;;16.85;7.68;;;8.50;1.00;;;;;;5015708;28;20046;-27
2022/05/05 05:53:11;;;;;;;12.77;7.93;;;8.60;1.00;;;;;;5033843;28;20045;-26
2022/05/05 05:55:36;;;;;;;14.20;7.43;;;8.70;1.00;;;;;;5023428;28;20057;-27
2022/05/05 05:58:03;;;;;;;16.17;7.53;;;8.80;1.00;;;;;;5018289;28;20045;-27
2022/05/05 06:00:30;;;;;;;13.38;7.75;;;8.90;1.00;;;;;;5025683;28;20049;-26
2022/05/05 06:05:42;;;;;;;12.80;6.93;;;9.10;99.90;;;;;;5027187;28;20041;-27
2022/05/05 06:08:08;;;;;;;13.93;7.43;;;9.30;99.90;;;;;;5012445;28;20570;-27
2022/05/05 06:10:34;;;;;;;15.65;7.03;;;9.40;99.90;;;;;;5013662;28;20497;-26
2022/05/05 06:13:00;;;;;;;10.77;6.47;;;9.50;99.90;;;;;;5013837;28;20053;-27
2022/05/05 06:15:26;;;;;;;13.65;6.57;;;9.50;99.90;;;;;;5014392;28;20046;-27
2022/05/05 06:17:52;;;;;;;11.65;6.70;;;9.60;99.90;;;;;;5013868;28;20117;-27
2022/05/05 06:20:18;;;;;;;14.88;6.90;;;9.60;99.90;;;;;;5012821;28;20107;-27
2022/05/05 06:22:44;;;;;;;15.15;7.30;;;9.70;99.90;;;;;;5012045;28;20148;-27
2022/05/05 06:25:14;;;;;;;12.25;7.18;;;9.80;99.90;;;;;;5012965;28;20537;-27
2022/05/05 06:27:40;;;;;;;15.02;7.40;;;10.00;99.90;;;;;;5013577;28;20046;-26
2022/05/05 06:30:09;;;;;;;13.75;6.55;;;10.10;99.90;;;;;;5011799;28;20194;-27
2022/05/05 06:32:35;;;;;;;12.68;6.30;;;10.10;99.90;;;;;;5013902;28;20464;-27
2022/05/05 06:35:01;;;;;;;17.23;7.32;;;10.10;99.90;;;;;;5013735;28;20061;-27
2022/05/05 06:37:26;;;;;;;14.85;6.75;;;10.10;99.90;;;;;;5012665;28;20053;-27
2022/05/05 06:39:52;;;;;;;14.10;6.07;;;10.00;99.90;;;;;;5015477;28;20049;-26
2022/05/05 06:42:19;;;;;;;13.63;6.45;;;10.10;99.90;;;;;;4999151;28;20042;-27
2022/05/05 06:44:44;;;;;;;12.38;6.18;;;10.20;99.90;;;;;;4995357;28;20050;-27
2022/05/05 06:47:11;;;;;;;12.35;5.95;;;10.30;99.90;;;;;;5020348;28;20052;-27
2022/05/05 06:49:36;;;;;;;12.75;5.68;;;10.40;99.90;;;;;;5025548;28;20104;-27
2022/05/05 06:52:03;;;;;;;13.27;5.43;;;10.60;99.90;;;;;;5027877;28;20125;-27
2022/05/05 06:54:29;;;;;;;10.57;5.88;;;10.70;99.90;;;;;;5037043;28;20057;-27
2022/05/05 06:56:55;;;;;;;14.65;6.60;;;10.50;99.90;;;;;;5018630;28;20460;-26
2022/05/05 06:59:21;;;;;;;15.32;6.93;;;10.70;99.90;;;;;;5029505;28;20068;-27
2022/05/05 07:01:53;;;;;;;12.40;5.05;;;10.80;99.90;;;;;;5037851;28;20120;-27
2022/05/05 07:07:13;;;;;;;11.98;5.05;;;11.30;99.90;;;;;;5017212;28;20050;-27
2022/05/05 07:12:28;;;;;;;17.77;6.45;;;11.50;94.40;;;;;;5016649;28;20140;-27
2022/05/05 07:14:54;;;;;;;13.23;5.20;;;11.70;99.90;;;;;;5017332;28;20467;-27
2022/05/05 07:17:21;;;;;;;10.60;5.57;;;11.80;35.80;;;;;;5016853;28;20049;-27
2022/05/05 07:19:47;;;;;;;12.73;5.35;;;12.00;23.20;;;;;;5016871;28;20054;-27
2022/05/05 07:22:12;;;;;;;12.68;5.60;;;12.10;1.00;;;;;;5016662;28;20056;-27
2022/05/05 07:24:38;;;;;;;11.80;5.35;;;12.10;1.00;;;;;;5015517;28;20436;-28
2022/05/05 07:27:05;;;;;;;9.93;5.03;;;12.40;1.00;;;;;;4983390;28;20137;-27
2022/05/05 07:29:32;;;;;;;12.30;5.47;;;12.50;1.00;;;;;;5015599;28;20489;-27
2022/05/05 07:31:58;;;;;;;12.88;5.55;;;12.50;1.00;;;;;;5017136;28;20050;-27
2022/05/05 07:34:24;;;;;;;12.80;5.95;;;12.50;1.00;;;;;;5015455;28;20085;-27
2022/05/05 07:36:50;;;;;;;12.55;5.22;;;12.50;1.00;;;;;;5027227;28;20079;-27
2022/05/05 07:39:16;;;;;;;11.10;5.10;;;12.60;1.00;;;;;;5025539;28;20070;-28
2022/05/05 07:41:42;;;;;;;13.10;5.68;;;12.60;1.00;;;;;;5036233;28;20400;-27
2022/05/05 07:44:08;;;;;;;10.70;4.95;;;12.90;1.00;;;;;;5036137;28;20045;-27
2022/05/05 07:46:35;;;;;;;11.55;5.35;;;12.90;1.00;;;;;;5036219;28;20054;-27
2022/05/05 07:49:04;;;;;;;11.80;4.60;;;12.90;1.00;;;;;;5034737;28;20103;-27
2022/05/05 07:51:30;;;;;;;12.88;5.30;;;13.00;1.00;;;;;;5016889;28;20050;-27
2022/05/05 07:56:42;;;;;;;14.70;6.05;;;13.30;1.00;;;;;;5034854;28;20045;-28
2022/05/05 07:59:07;;;;;;;11.02;5.63;;;13.60;1.00;;;;;;5033557;28;20041;-28
2022/05/05 08:01:33;;;;;;;10.32;4.93;;;13.80;99.90;;;;;;5035943;28;20051;-27
2022/05/05 08:03:59;;;;;;;9.90;5.10;;;14.10;99.90;;;;;;5035884;28;20053;-27
2022/05/05 08:06:25;;;;;;;14.02;5.50;;;14.40;99.90;;;;;;5037472;28;20049;-27
2022/05/05 08:08:51;;;;;;;8.90;4.90;;;14.60;99.90;;;;;;5034574;28;20081;-27
2022/05/05 08:11:17;;;;;;;10.48;4.80;;;14.80;99.90;;;;;;5035306;28;20057;-27
2022/05/05 08:13:43;;;;;;;10.35;3.58;;;15.00;99.90;;;;;;5018371;28;20582;-28
2022/05/05 08:16:09;;;;;;;12.32;4.75;;;15.10;99.90;;;;;;5028094;28;20046;-27
2022/05/05 08:18:38;;;;;;;14.48;4.25;;;15.30;99.90;;;;;;5015765;28;20048;-27
2022/05/05 08:21:10;;;;;;;13.38;4.80;;;15.20;99.90;;;;;;5015755;28;20516;-26
2022/05/05 08:23:36;;;;;;;11.85;4.22;;;15.30;99.90;;;;;;5016061;28;20049;-27
2022/05/05 08:28:47;;;;;;;9.90;3.95;;;15.40;99.90;;;;;;5033729;28;20049;-26
2022/05/05 08:31:13;;;;;;;11.43;4.53;;;15.60;99.90;;;;;;5030706;28;20046;-26
2022/05/05 08:33:38;;;;;;;13.23;4.20;;;15.60;99.90;;;;;;5015536;28;20052;-27
2022/05/05 08:36:06;;;;;;;10.48;4.43;;;15.80;99.90;;;;;;5015526;28;20072;-27
2022/05/05 08:38:32;;;;;;;11.20;4.75;;;15.80;99.90;;;;;;5015922;28;20125;-26
2022/05/05 08:40:59;;;;;;;9.40;4.07;;;16.00;99.90;;;;;;5015451;28;20058;-28
2022/05/05 08:43:25;;;;;;;10.38;4.00;;;16.10;99.90;;;;;;5025537;28;20095;-26
2022/05/05 08:45:53;;;;;;;9.18;3.20;;;16.40;99.90;;;;;;5021331;28;20045;-27
2022/05/05 08:48:20;;;;;;;7.20;3.35;;;16.70;78.40;;;;;;5034386;28;20397;-26
2022/05/05 08:50:51;;;;;;;8.95;3.55;;;16.90;34.00;;;;;;5028231;28;20041;-26
2022/05/05 08:53:21;;;;;;;9.75;3.50;;;17.10;1.00;;;;;;5016540;28;20041;-27
2022/05/05 08:55:47;;;;;;;7.70;3.70;;;16.30;1.00;;;;;;5002305;28;20081;-26
2022/05/05 08:58:13;;;;;;;9.13;3.30;;;16.10;2.70;;;;;;5033991;28;20080;-26
2022/05/05 09:00:38;;;;;;;11.13;3.55;;;16.00;16.10;;;;;;5034818;28;20045;-27
2022/05/05 09:03:08;;;;;;;8.50;4.05;;;16.10;61.60;;;;;;5035030;28;20057;-27
2022/05/05 09:05:43;;;;;;;7.80;3.83;;;16.40;60.30;;;;;;5034694;28;20088;-27
2022/05/05 09:08:13;;;;;;;14.43;4.30;;;17.00;1.00;;;;;;5028466;28;20112;-26
2022/05/05 09:10:48;;;;;;;8.75;4.30;;;17.40;1.00;;;;;;4997129;28;20056;-27
2022/05/05 09:13:21;;;;;;;6.60;3.63;;;17.30;1.00;;;;;;5018301;28;20497;-27
2022/05/05 09:15:47;;;;;;;8.18;4.75;;;17.30;1.00;;;;;;5033681;28;20484;-26
2022/05/05 09:18:15;;;;;;;12.10;4.50;;;17.60;1.00;;;;;;5026552;28;20040;-27
2022/05/05 09:20:42;;;;;;;7.95;3.88;;;18.00;1.00;;;;;;5014759;28;20137;-27
2022/05/05 09:23:09;;;;;;;11.05;4.45;;;18.40;1.00;;;;;;5014721;28;20421;-26
2022/05/05 09:25:48;;;;;;;8.38;4.78;;;18.30;1.00;;;;;;5014625;28;20050;-26
2022/05/05 09:28:21;;;;;;;13.23;4.50;;;18.10;1.00;;;;;;5014333;28;20085;-27
2022/05/05 09:30:49;;;;;;;10.18;4.57;;;18.10;1.00;;;;;;5025320;28;20107;-27
2022/05/05 09:33:34;;;;;;;8.70;4.63;;;17.80;1.00;;;;;;5035308;28;20042;-27
2022/05/05 09:36:04;;;;;;;9.93;4.95;;;17.80;1.00;;;;;;5028029;28;20042;-27
2022/05/05 09:39:00;;;;;;;12.48;5.00;;;18.30;1.00;;;;;;5027072;28;20046;-28
2022/05/05 09:41:32;;;;;;;7.68;4.63;;;18.70;1.00;;;;;;5032838;28;20072;-26
2022/05/05 09:44:21;;;;;;;10.10;4.75;;;18.80;1.00;;;;;;5034131;28;20045;-27
2022/05/05 09:46:48;;;;;;;8.50;4.78;;;18.80;1.00;;;;;;5034020;28;20041;-26
2022/05/05 09:49:17;;;;;;;15.23;5.55;;;18.70;1.00;;;;;;5016990;28;20137;-26
2022/05/05 09:51:44;;;;;;;8.25;4.90;;;19.10;1.00;;;;;;5014213;28;20049;-27
2022/05/05 09:59:49;;;;;;;9.85;5.22;;;20.10;1.00;;;;;;5014032;28;20054;-27
2022/05/05 10:05:15;;;;;;;9.48;6.47;;;20.10;1.00;;;;;;5014421;28;20053;-28
2022/05/05 10:07:44;;;;;;;11.85;5.95;;;20.50;1.00;;;;;;5000375;28;20046;-27
2022/05/05 10:10:13;;;;;;;10.80;5.97;;;20.70;1.00;;;;;;5013641;28;20056;-28
2022/05/05 10:12:39;;;;;;;9.82;6.70;;;20.50;99.90;;;;;;5014024;28;20046;-27
2022/05/05 10:15:06;;;;;;;14.63;7.45;;;20.20;99.90;;;;;;5013758;28;20046;-27
2022/05/05 10:17:35;;;;;;;10.88;6.00;;;19.80;1.00;;;;;;5013197;28;20041;-27
2022/05/05 10:20:05;;;;;;;8.85;6.28;;;19.30;1.00;;;;;;5012634;28;20049;-27
2022/05/05 10:22:45;;;;;;;9.07;6.82;;;18.90;1.00;;;;;;5013221;28;20541;-27
2022/05/05 10:25:19;;;;;;;9.65;5.88;;;18.70;1.00;;;;;;5013649;28;20129;-27
2022/05/05 10:27:45;;;;;;;8.98;6.45;;;18.40;1.00;;;;;;5013210;28;20133;-27
2022/05/05 10:30:32;;;;;;;10.95;5.78;;;18.30;1.00;;;;;;5012802;28;20493;-27
2022/05/05 10:32:58;;;;;;;11.38;6.32;;;18.50;1.00;;;;;;4999438;28;20046;-28
2022/05/05 10:35:25;;;;;;;11.55;6.88;;;18.00;1.00;;;;;;4980274;28;20111;-27
2022/05/05 10:37:51;;;;;;;10.65;6.43;;;18.10;1.00;;;;;;5013583;28;20041;-27
2022/05/05 10:40:17;;;;;;;10.82;7.35;;;18.20;1.00;;;;;;5013653;28;20069;-27
2022/05/05 10:42:45;;;;;;;10.35;6.97;;;18.20;1.00;;;;;;5013663;28;20049;-27
2022/05/05 10:45:16;;;;;;;12.60;6.95;;;18.30;1.00;;;;;;5013594;28;20054;-27
2022/05/05 10:48:06;;;;;;;11.35;7.00;;;18.50;1.00;;;;;;5013258;28;20502;-27
2022/05/05 10:50:50;;;;;;;11.07;7.63;;;18.70;1.00;;;;;;5012261;28;20062;-27
2022/05/05 10:53:31;;;;;;;12.10;7.25;;;18.80;99.90;;;;;;5012615;28;20060;-27
2022/05/05 10:56:02;;;;;;;8.45;6.53;;;19.50;1.00;;;;;;5013349;28;20541;-28
2022/05/05 10:59:02;;;;;;;11.43;7.68;;;19.80;99.90;;;;;;5014126;28;20045;-27
2022/05/05 11:01:49;;;;;;;9.43;6.82;;;19.70;99.90;;;;;;5013327;28;20042;-27
2022/05/05 11:04:17;;;;;;;9.30;7.10;;;20.20;99.90;;;;;;4976227;28;20054;-27
2022/05/05 11:06:45;;;;;;;8.57;5.70;;;20.80;99.90;;;;;;5012431;28;20125;-27
2022/05/05 11:09:32;;;;;;;11.63;6.40;;;20.90;99.90;;;;;;5012460;28;20049;-27
2022/05/05 11:12:24;;;;;;;12.13;7.05;;;20.50;99.90;;;;;;5028488;28;20400;-27
2022/05/05 11:23:45;;;;;;;9.88;6.90;;;20.00;99.90;;;;;;5013331;28;20057;-27
2022/05/05 11:26:18;;;;;;;7.72;6.15;;;19.70;99.90;;;;;;5013571;28;20116;-28
2022/05/05 11:28:45;;;;;;;;;;;19.90;99.90;;;;;;5013554;28;20397;-27
2022/05/05 11:31:19;;;;;;;11.88;6.88;;;19.40;99.90;;;;;;5012543;28;20311;-27
2022/05/05 11:33:53;;;;;;;12.55;7.72;;;19.50;99.90;;;;;;5013157;28;20061;-27
2022/05/05 11:36:20;;;;;;;8.63;6.10;;;19.80;99.90;;;;;;5032686;28;20053;-27
2022/05/05 11:38:46;;;;;;;10.48;6.20;;;20.30;99.90;;;;;;5015142;28;20053;-28
2022/05/05 11:41:18;;;;;;;9.20;6.97;;;20.70;99.90;;;;;;5016628;28;20046;-27
2022/05/05 11:46:28;;;;;;;8.65;6.53;;;20.60;99.90;;;;;;5015885;28;20049;-27
2022/05/05 11:48:56;;;;;;;8.70;6.10;;;20.70;99.90;;;;;;5016686;28;20046;-27
2022/05/05 11:51:29;;;;;;;10.20;7.07;;;20.60;99.90;;;;;;5016448;28;20046;-27
2022/05/05 11:54:07;;;;;;;9.98;7.72;;;20.60;99.90;;;;;;5015258;28;20088;-28
2022/05/05 11:56:34;;;;;;;8.63;5.95;;;20.90;99.90;;;;;;5015708;28;20421;-27
2022/05/05 12:02:09;;;;;;;8.90;6.72;;;21.40;99.90;;;;;;5016247;28;20061;-27
2022/05/05 12:04:38;;;;;;;8.80;6.40;;;21.80;99.90;;;;;;5015707;28;20478;-27
2022/05/05 12:07:06;;;;;;;9.13;5.80;;;22.30;99.90;;;;;;5016395;28;20048;-27
2022/05/05 12:09:33;;;;;;;9.43;6.78;;;22.50;99.90;;;;;;5016920;28;20045;-27
2022/05/05 12:12:18;;;;;;;9.90;6.20;;;22.50;99.90;;;;;;5016021;28;20058;-27
2022/05/05 12:14:55;;;;;;;8.35;6.85;;;22.20;99.90;;;;;;5016860;28;20386;-28
2022/05/05 12:17:23;;;;;;;15.98;6.47;;;21.30;99.90;;;;;;5014569;28;20106;-28
2022/05/05 12:19:59;;;;;;;10.20;6.25;;;20.90;99.90;;;;;;5016491;28;20054;-27
2022/05/05 12:22:33;;;;;;;9.63;6.30;;;20.70;99.90;;;;;;5016440;28;20054;-27
2022/05/05 12:25:14;;;;;;;12.38;6.55;;;20.20;99.90;;;;;;5015793;28;20112;-27
2022/05/05 12:27:41;;;;;;;8.88;6.10;;;20.20;99.90;;;;;;5015796;28;20045;-27
2022/05/05 12:30:08;;;;;;;10.70;6.85;;;20.10;99.90;;;;;;5031086;28;20049;-27
2022/05/05 12:32:33;;;;;;;9.00;6.45;;;20.10;99.90;;;;;;5015836;28;20053;-27
2022/05/05 12:35:10;;;;;;;10.82;6.97;;;20.60;99.90;;;;;;5015585;28;20382;-27
2022/05/05 12:37:37;;;;;;;8.50;6.40;;;21.20;99.90;;;;;;5015467;28;20046;-27
2022/05/05 12:40:07;;;;;;;9.95;6.13;;;21.30;99.90;;;;;;5015486;28;20072;-28
2022/05/05 12:43:06;;;;;;;11.77;7.07;;;21.30;99.90;;;;;;5015675;28;20068;-28
2022/05/05 12:45:33;;;;;;;8.63;6.53;;;21.70;99.90;;;;;;5010731;28;20199;-29
2022/05/05 12:48:01;;;;;;;13.50;7.03;;;21.90;99.90;;;;;;5014359;28;20588;-27
2022/05/05 12:50:35;;;;;;;8.00;6.38;;;22.30;99.90;;;;;;5014081;28;20050;-28
2022/05/05 13:01:26;;;;;;;7.03;5.57;;;22.50;99.90;;;;;;5015628;28;20100;-28
2022/05/05 13:03:55;;;;;;;7.53;5.38;;;22.20;99.90;;;;;;5013580;28;20572;-28
2022/05/05 13:06:25;;;;;;;7.40;5.40;;;22.20;99.90;;;;;;5015243;28;20468;-27
2022/05/05 13:08:54;;;;;;;8.23;5.85;;;21.70;99.90;;;;;;5015414;28;20544;-27
2022/05/05 13:11:21;;;;;;;7.07;5.57;;;21.40;99.90;;;;;;5013635;28;20456;-27
2022/05/05 13:13:49;;;;;;;7.00;4.75;;;21.40;99.90;;;;;;5014818;28;20065;-27
2022/05/05 13:16:15;;;;;;;9.60;4.80;;;21.10;99.90;;;;;;5014764;28;20049;-27
2022/05/05 13:18:41;;;;;;;7.20;4.05;;;20.80;99.90;;;;;;5013597;28;20069;-27
2022/05/05 13:21:08;;;;;;;4.22;3.58;;;20.60;99.90;;;;;;5014648;28;20049;-27
2022/05/05 13:23:34;;;;;;;5.00;4.15;;;20.30;99.90;;;;;;5013396;28;20132;-27
2022/05/05 13:26:01;;;;;;;5.97;3.97;;;20.20;99.90;;;;;;5013615;28;20046;-27
2022/05/05 13:28:26;;;;;;;5.90;4.40;;;20.30;99.90;;;;;;5014557;28;20046;-27
2022/05/05 13:30:52;;;;;;;6.68;5.32;;;20.70;99.90;;;;;;5014745;28;20065;-27
2022/05/05 13:33:18;;;;;;;7.68;5.18;;;20.60;99.90;;;;;;5013607;28;20050;-27
2022/05/05 13:35:44;;;;;;;5.57;4.32;;;20.60;99.90;;;;;;5013385;28;20064;-27
2022/05/05 13:38:10;;;;;;;7.25;5.32;;;20.30;99.90;;;;;;5013071;28;20115;-28
2022/05/05 13:40:35;;;;;;;8.93;4.57;;;20.30;99.90;;;;;;5014279;28;20045;-27
2022/05/05 13:43:01;;;;;;;6.32;4.43;;;20.60;99.90;;;;;;5013330;28;20052;-27
2022/05/05 13:45:27;;;;;;;10.00;5.75;;;20.80;99.90;;;;;;5013374;28;20042;-27
2022/05/05 13:47:54;;;;;;;5.68;4.40;;;21.10;99.90;;;;;;5013915;28;20086;-27